sensor_id;sensor_type;location;lat;lon;timestamp;P1;durP1;ratioP1;P2;durP2;ratioP2
15635;SDS011;7917;50.818;6.972;2024-02-28T00:01:00;109.30;;;45.55;;
15635;SDS011;7917;50.818;6.972;2024-02-28T00:03:26;113.70;;;44.33;;
15635;SDS011;7917;50.818;6.972;2024-02-28T00:05:52;110.22;;;45.50;;
15635;SDS011;7917;50.818;6.972;2024-02-28T00:08:19;111.07;;;45.70;;
15635;SDS011;7917;50.818;6.972;2024-02-28T00:10:46;117.07;;;46.28;;
15635;SDS011;7917;50.818;6.972;2024-02-28T00:13:14;125.88;;;48.25;;
15635;SDS011;7917;50.818;6.972;2024-02-28T00:15:40;125.55;;;48.70;;
15635;SDS011;7917;50.818;6.972;2024-02-28T00:18:07;123.68;;;48.28;;
15635;SDS011;7917;50.818;6.972;2024-02-28T00:20:33;117.55;;;46.67;;
15635;SDS011;7917;50.818;6.972;2024-02-28T00:22:59;133.55;;;50.28;;
15635;SDS011;7917;50.818;6.972;2024-02-28T00:25:26;125.72;;;48.97;;
15635;SDS011;7917;50.818;6.972;2024-02-28T00:27:52;130.60;;;48.65;;
15635;SDS011;7917;50.818;6.972;2024-02-28T00:30:18;127.90;;;49.50;;
15635;SDS011;7917;50.818;6.972;2024-02-28T00:32:45;127.57;;;49.22;;
15635;SDS011;7917;50.818;6.972;2024-02-28T00:35:11;123.93;;;48.20;;
15635;SDS011;7917;50.818;6.972;2024-02-28T00:37:38;125.43;;;48.55;;
15635;SDS011;7917;50.818;6.972;2024-02-28T00:40:06;124.60;;;47.58;;
15635;SDS011;7917;50.818;6.972;2024-02-28T00:42:35;125.95;;;50.35;;
15635;SDS011;7917;50.818;6.972;2024-02-28T00:45:01;110.72;;;45.58;;
15635;SDS011;7917;50.818;6.972;2024-02-28T00:47:27;114.63;;;45.85;;
15635;SDS011;7917;50.818;6.972;2024-02-28T00:49:54;109.82;;;46.60;;
15635;SDS011;7917;50.818;6.972;2024-02-28T00:52:20;121.00;;;50.22;;
15635;SDS011;7917;50.818;6.972;2024-02-28T00:54:46;111.75;;;47.10;;
15635;SDS011;7917;50.818;6.972;2024-02-28T00:57:12;104.00;;;44.85;;
15635;SDS011;7917;50.818;6.972;2024-02-28T00:59:39;100.95;;;45.95;;
15635;SDS011;7917;50.818;6.972;2024-02-28T01:02:05;103.13;;;46.42;;
15635;SDS011;7917;50.818;6.972;2024-02-28T01:04:31;104.13;;;44.63;;
15635;SDS011;7917;50.818;6.972;2024-02-28T01:06:57;103.38;;;43.90;;
15635;SDS011;7917;50.818;6.972;2024-02-28T01:09:25;99.07;;;43.88;;
15635;SDS011;7917;50.818;6.972;2024-02-28T01:11:51;105.45;;;47.78;;
15635;SDS011;7917;50.818;6.972;2024-02-28T01:14:17;102.50;;;45.00;;
15635;SDS011;7917;50.818;6.972;2024-02-28T01:16:44;106.43;;;45.00;;
15635;SDS011;7917;50.818;6.972;2024-02-28T01:19:10;103.15;;;45.17;;
15635;SDS011;7917;50.818;6.972;2024-02-28T01:21:38;104.82;;;45.20;;
15635;SDS011;7917;50.818;6.972;2024-02-28T01:24:04;101.47;;;46.60;;
15635;SDS011;7917;50.818;6.972;2024-02-28T01:26:31;105.13;;;45.95;;
15635;SDS011;7917;50.818;6.972;2024-02-28T01:28:57;106.55;;;47.53;;
15635;SDS011;7917;50.818;6.972;2024-02-28T01:31:23;101.65;;;44.55;;
15635;SDS011;7917;50.818;6.972;2024-02-28T01:33:50;109.75;;;46.33;;
15635;SDS011;7917;50.818;6.972;2024-02-28T01:36:16;101.28;;;45.95;;
15635;SDS011;7917;50.818;6.972;2024-02-28T01:38:43;94.05;;;44.80;;
15635;SDS011;7917;50.818;6.972;2024-02-28T01:41:09;108.45;;;46.78;;
15635;SDS011;7917;50.818;6.972;2024-02-28T01:43:35;99.22;;;44.38;;
15635;SDS011;7917;50.818;6.972;2024-02-28T01:46:03;99.70;;;44.83;;
15635;SDS011;7917;50.818;6.972;2024-02-28T01:48:45;95.85;;;45.53;;
15635;SDS011;7917;50.818;6.972;2024-02-28T01:51:12;100.90;;;44.70;;
15635;SDS011;7917;50.818;6.972;2024-02-28T01:53:39;102.65;;;46.83;;
15635;SDS011;7917;50.818;6.972;2024-02-28T01:56:11;94.05;;;44.75;;
15635;SDS011;7917;50.818;6.972;2024-02-28T01:58:40;104.93;;;43.13;;
15635;SDS011;7917;50.818;6.972;2024-02-28T02:01:07;99.15;;;44.88;;
15635;SDS011;7917;50.818;6.972;2024-02-28T02:03:35;101.30;;;45.33;;
15635;SDS011;7917;50.818;6.972;2024-02-28T02:06:01;99.10;;;45.28;;
15635;SDS011;7917;50.818;6.972;2024-02-28T02:08:29;98.80;;;43.30;;
15635;SDS011;7917;50.818;6.972;2024-02-28T02:10:56;107.10;;;45.42;;
15635;SDS011;7917;50.818;6.972;2024-02-28T02:13:22;96.90;;;43.70;;
15635;SDS011;7917;50.818;6.972;2024-02-28T02:15:48;103.97;;;45.35;;
15635;SDS011;7917;50.818;6.972;2024-02-28T02:18:14;93.95;;;43.05;;
15635;SDS011;7917;50.818;6.972;2024-02-28T02:20:41;99.97;;;44.20;;
15635;SDS011;7917;50.818;6.972;2024-02-28T02:23:12;93.55;;;42.83;;
15635;SDS011;7917;50.818;6.972;2024-02-28T02:25:43;99.70;;;44.95;;
15635;SDS011;7917;50.818;6.972;2024-02-28T02:28:10;98.93;;;44.55;;
15635;SDS011;7917;50.818;6.972;2024-02-28T02:30:37;105.65;;;44.40;;
15635;SDS011;7917;50.818;6.972;2024-02-28T02:33:04;108.53;;;44.88;;
15635;SDS011;7917;50.818;6.972;2024-02-28T02:35:31;107.97;;;45.50;;
15635;SDS011;7917;50.818;6.972;2024-02-28T02:37:58;105.10;;;45.13;;
15635;SDS011;7917;50.818;6.972;2024-02-28T02:40:25;105.78;;;46.63;;
15635;SDS011;7917;50.818;6.972;2024-02-28T02:42:52;121.07;;;47.95;;
15635;SDS011;7917;50.818;6.972;2024-02-28T02:45:18;103.95;;;45.10;;
15635;SDS011;7917;50.818;6.972;2024-02-28T02:47:44;98.55;;;44.30;;
15635;SDS011;7917;50.818;6.972;2024-02-28T02:50:10;107.10;;;44.50;;
15635;SDS011;7917;50.818;6.972;2024-02-28T02:52:37;101.15;;;46.00;;
15635;SDS011;7917;50.818;6.972;2024-02-28T02:55:03;105.95;;;45.15;;
15635;SDS011;7917;50.818;6.972;2024-02-28T02:57:31;99.70;;;43.63;;
15635;SDS011;7917;50.818;6.972;2024-02-28T02:59:58;103.28;;;43.55;;
15635;SDS011;7917;50.818;6.972;2024-02-28T03:02:24;95.68;;;43.42;;
15635;SDS011;7917;50.818;6.972;2024-02-28T03:04:51;98.32;;;43.35;;
15635;SDS011;7917;50.818;6.972;2024-02-28T03:07:18;101.35;;;41.85;;
15635;SDS011;7917;50.818;6.972;2024-02-28T03:09:44;95.88;;;41.17;;
15635;SDS011;7917;50.818;6.972;2024-02-28T03:12:10;103.47;;;43.25;;
15635;SDS011;7917;50.818;6.972;2024-02-28T03:14:37;98.85;;;42.03;;
15635;SDS011;7917;50.818;6.972;2024-02-28T03:17:03;92.60;;;40.72;;
15635;SDS011;7917;50.818;6.972;2024-02-28T03:19:29;99.55;;;41.15;;
15635;SDS011;7917;50.818;6.972;2024-02-28T03:21:55;100.45;;;39.40;;
15635;SDS011;7917;50.818;6.972;2024-02-28T03:24:21;93.65;;;41.35;;
15635;SDS011;7917;50.818;6.972;2024-02-28T03:26:48;95.05;;;39.22;;
15635;SDS011;7917;50.818;6.972;2024-02-28T03:29:15;96.43;;;41.08;;
15635;SDS011;7917;50.818;6.972;2024-02-28T03:31:41;93.43;;;39.22;;
15635;SDS011;7917;50.818;6.972;2024-02-28T03:34:08;92.13;;;38.90;;
15635;SDS011;7917;50.818;6.972;2024-02-28T03:36:36;87.03;;;39.72;;
15635;SDS011;7917;50.818;6.972;2024-02-28T03:39:02;88.57;;;40.05;;
15635;SDS011;7917;50.818;6.972;2024-02-28T03:41:29;93.95;;;40.22;;
15635;SDS011;7917;50.818;6.972;2024-02-28T03:43:55;85.53;;;39.65;;
15635;SDS011;7917;50.818;6.972;2024-02-28T03:46:21;84.00;;;37.55;;
15635;SDS011;7917;50.818;6.972;2024-02-28T03:48:48;88.93;;;37.10;;
15635;SDS011;7917;50.818;6.972;2024-02-28T03:51:15;83.30;;;36.50;;
15635;SDS011;7917;50.818;6.972;2024-02-28T03:53:41;93.68;;;37.92;;
15635;SDS011;7917;50.818;6.972;2024-02-28T03:56:07;81.75;;;36.67;;
15635;SDS011;7917;50.818;6.972;2024-02-28T03:58:34;81.72;;;36.83;;
15635;SDS011;7917;50.818;6.972;2024-02-28T04:04:23;81.70;;;36.83;;
15635;SDS011;7917;50.818;6.972;2024-02-28T04:06:49;88.97;;;38.13;;
15635;SDS011;7917;50.818;6.972;2024-02-28T04:09:16;86.40;;;37.67;;
15635;SDS011;7917;50.818;6.972;2024-02-28T04:11:43;82.80;;;37.05;;
15635;SDS011;7917;50.818;6.972;2024-02-28T04:14:09;86.43;;;36.33;;
15635;SDS011;7917;50.818;6.972;2024-02-28T04:16:40;85.68;;;37.33;;
15635;SDS011;7917;50.818;6.972;2024-02-28T04:19:09;83.88;;;38.20;;
15635;SDS011;7917;50.818;6.972;2024-02-28T04:21:36;90.05;;;39.13;;
15635;SDS011;7917;50.818;6.972;2024-02-28T04:24:03;94.53;;;40.45;;
15635;SDS011;7917;50.818;6.972;2024-02-28T04:26:30;95.43;;;41.75;;
15635;SDS011;7917;50.818;6.972;2024-02-28T04:28:56;87.90;;;38.53;;
15635;SDS011;7917;50.818;6.972;2024-02-28T04:31:24;92.80;;;39.85;;
15635;SDS011;7917;50.818;6.972;2024-02-28T04:33:51;92.22;;;38.42;;
15635;SDS011;7917;50.818;6.972;2024-02-28T04:36:17;94.40;;;41.38;;
15635;SDS011;7917;50.818;6.972;2024-02-28T04:38:45;93.40;;;40.47;;
15635;SDS011;7917;50.818;6.972;2024-02-28T04:41:12;86.80;;;38.80;;
15635;SDS011;7917;50.818;6.972;2024-02-28T04:43:39;91.05;;;37.95;;
15635;SDS011;7917;50.818;6.972;2024-02-28T04:46:06;88.32;;;37.90;;
15635;SDS011;7917;50.818;6.972;2024-02-28T04:48:34;94.45;;;39.20;;
15635;SDS011;7917;50.818;6.972;2024-02-28T04:51:01;85.90;;;38.28;;
15635;SDS011;7917;50.818;6.972;2024-02-28T04:53:27;79.47;;;38.40;;
15635;SDS011;7917;50.818;6.972;2024-02-28T04:55:55;88.65;;;39.05;;
15635;SDS011;7917;50.818;6.972;2024-02-28T04:58:21;98.45;;;39.45;;
15635;SDS011;7917;50.818;6.972;2024-02-28T05:00:48;88.38;;;39.55;;
15635;SDS011;7917;50.818;6.972;2024-02-28T05:03:16;83.15;;;37.72;;
15635;SDS011;7917;50.818;6.972;2024-02-28T05:05:42;88.22;;;39.33;;
15635;SDS011;7917;50.818;6.972;2024-02-28T05:08:09;91.80;;;39.80;;
15635;SDS011;7917;50.818;6.972;2024-02-28T05:10:36;97.97;;;41.67;;
15635;SDS011;7917;50.818;6.972;2024-02-28T05:13:04;97.50;;;42.45;;
15635;SDS011;7917;50.818;6.972;2024-02-28T05:15:31;97.20;;;41.90;;
15635;SDS011;7917;50.818;6.972;2024-02-28T05:17:59;89.93;;;39.33;;
15635;SDS011;7917;50.818;6.972;2024-02-28T05:20:25;95.30;;;41.25;;
15635;SDS011;7917;50.818;6.972;2024-02-28T05:22:52;98.03;;;42.03;;
15635;SDS011;7917;50.818;6.972;2024-02-28T05:25:18;96.82;;;43.42;;
15635;SDS011;7917;50.818;6.972;2024-02-28T05:27:45;88.57;;;41.03;;
15635;SDS011;7917;50.818;6.972;2024-02-28T05:30:13;94.82;;;42.15;;
15635;SDS011;7917;50.818;6.972;2024-02-28T05:32:40;90.43;;;41.25;;
15635;SDS011;7917;50.818;6.972;2024-02-28T05:35:07;93.40;;;40.17;;
15635;SDS011;7917;50.818;6.972;2024-02-28T05:37:36;100.70;;;43.70;;
15635;SDS011;7917;50.818;6.972;2024-02-28T05:40:03;91.47;;;39.92;;
15635;SDS011;7917;50.818;6.972;2024-02-28T05:42:32;95.80;;;41.60;;
15635;SDS011;7917;50.818;6.972;2024-02-28T05:44:59;92.05;;;39.58;;
15635;SDS011;7917;50.818;6.972;2024-02-28T05:47:26;90.88;;;39.30;;
15635;SDS011;7917;50.818;6.972;2024-02-28T05:49:53;88.90;;;39.35;;
15635;SDS011;7917;50.818;6.972;2024-02-28T05:52:21;93.28;;;39.40;;
15635;SDS011;7917;50.818;6.972;2024-02-28T05:54:48;89.20;;;39.95;;
15635;SDS011;7917;50.818;6.972;2024-02-28T05:57:15;94.57;;;39.78;;
15635;SDS011;7917;50.818;6.972;2024-02-28T05:59:41;102.07;;;42.70;;
15635;SDS011;7917;50.818;6.972;2024-02-28T06:02:08;88.28;;;38.90;;
15635;SDS011;7917;50.818;6.972;2024-02-28T06:04:36;96.68;;;41.17;;
15635;SDS011;7917;50.818;6.972;2024-02-28T06:07:03;98.25;;;41.67;;
15635;SDS011;7917;50.818;6.972;2024-02-28T06:09:30;98.18;;;42.72;;
15635;SDS011;7917;50.818;6.972;2024-02-28T06:11:58;96.03;;;42.80;;
15635;SDS011;7917;50.818;6.972;2024-02-28T06:14:24;101.13;;;43.13;;
15635;SDS011;7917;50.818;6.972;2024-02-28T06:16:51;94.90;;;41.67;;
15635;SDS011;7917;50.818;6.972;2024-02-28T06:19:18;97.13;;;42.45;;
15635;SDS011;7917;50.818;6.972;2024-02-28T06:21:45;93.28;;;40.83;;
15635;SDS011;7917;50.818;6.972;2024-02-28T06:24:12;101.78;;;41.70;;
15635;SDS011;7917;50.818;6.972;2024-02-28T06:26:38;99.60;;;41.75;;
15635;SDS011;7917;50.818;6.972;2024-02-28T06:29:07;104.45;;;44.22;;
15635;SDS011;7917;50.818;6.972;2024-02-28T06:31:33;96.97;;;42.45;;
15635;SDS011;7917;50.818;6.972;2024-02-28T06:34:01;95.75;;;42.38;;
15635;SDS011;7917;50.818;6.972;2024-02-28T06:36:28;97.63;;;42.38;;
15635;SDS011;7917;50.818;6.972;2024-02-28T06:38:56;96.90;;;43.42;;
15635;SDS011;7917;50.818;6.972;2024-02-28T06:41:23;102.35;;;44.30;;
15635;SDS011;7917;50.818;6.972;2024-02-28T06:43:50;95.43;;;44.80;;
15635;SDS011;7917;50.818;6.972;2024-02-28T06:46:16;100.20;;;44.53;;
15635;SDS011;7917;50.818;6.972;2024-02-28T06:48:43;92.60;;;42.25;;
15635;SDS011;7917;50.818;6.972;2024-02-28T06:51:10;90.38;;;41.13;;
15635;SDS011;7917;50.818;6.972;2024-02-28T06:53:36;87.10;;;39.15;;
15635;SDS011;7917;50.818;6.972;2024-02-28T06:56:06;93.03;;;41.90;;
15635;SDS011;7917;50.818;6.972;2024-02-28T06:58:34;96.10;;;41.13;;
15635;SDS011;7917;50.818;6.972;2024-02-28T07:01:01;96.55;;;43.70;;
15635;SDS011;7917;50.818;6.972;2024-02-28T07:03:28;92.32;;;41.50;;
15635;SDS011;7917;50.818;6.972;2024-02-28T07:05:55;88.05;;;42.67;;
15635;SDS011;7917;50.818;6.972;2024-02-28T07:08:22;94.28;;;42.40;;
15635;SDS011;7917;50.818;6.972;2024-02-28T07:10:49;99.40;;;42.35;;
15635;SDS011;7917;50.818;6.972;2024-02-28T07:13:20;98.43;;;41.70;;
15635;SDS011;7917;50.818;6.972;2024-02-28T07:15:47;92.18;;;39.13;;
15635;SDS011;7917;50.818;6.972;2024-02-28T07:18:14;86.75;;;39.45;;
15635;SDS011;7917;50.818;6.972;2024-02-28T07:20:42;81.20;;;37.65;;
15635;SDS011;7917;50.818;6.972;2024-02-28T07:23:08;85.75;;;40.53;;
15635;SDS011;7917;50.818;6.972;2024-02-28T07:25:35;86.60;;;38.80;;
15635;SDS011;7917;50.818;6.972;2024-02-28T07:28:02;81.90;;;38.45;;
15635;SDS011;7917;50.818;6.972;2024-02-28T07:30:30;82.93;;;39.08;;
15635;SDS011;7917;50.818;6.972;2024-02-28T07:32:56;79.65;;;37.05;;
15635;SDS011;7917;50.818;6.972;2024-02-28T07:35:23;79.15;;;36.75;;
15635;SDS011;7917;50.818;6.972;2024-02-28T07:37:49;85.03;;;39.08;;
15635;SDS011;7917;50.818;6.972;2024-02-28T07:40:16;82.03;;;38.20;;
15635;SDS011;7917;50.818;6.972;2024-02-28T07:42:44;80.72;;;37.28;;
15635;SDS011;7917;50.818;6.972;2024-02-28T07:45:10;90.53;;;41.20;;
15635;SDS011;7917;50.818;6.972;2024-02-28T07:47:38;84.85;;;37.10;;
15635;SDS011;7917;50.818;6.972;2024-02-28T07:50:06;81.72;;;38.80;;
15635;SDS011;7917;50.818;6.972;2024-02-28T07:52:33;74.82;;;36.83;;
15635;SDS011;7917;50.818;6.972;2024-02-28T07:55:03;86.57;;;39.78;;
15635;SDS011;7917;50.818;6.972;2024-02-28T07:57:31;82.82;;;38.95;;
15635;SDS011;7917;50.818;6.972;2024-02-28T07:59:58;82.20;;;38.42;;
15635;SDS011;7917;50.818;6.972;2024-02-28T08:02:25;82.45;;;38.65;;
15635;SDS011;7917;50.818;6.972;2024-02-28T08:04:52;83.32;;;40.67;;
15635;SDS011;7917;50.818;6.972;2024-02-28T08:07:19;87.15;;;39.92;;
15635;SDS011;7917;50.818;6.972;2024-02-28T08:09:46;83.22;;;38.38;;
15635;SDS011;7917;50.818;6.972;2024-02-28T08:12:12;83.07;;;39.33;;
15635;SDS011;7917;50.818;6.972;2024-02-28T08:14:39;90.80;;;40.58;;
15635;SDS011;7917;50.818;6.972;2024-02-28T08:17:06;85.80;;;39.58;;
15635;SDS011;7917;50.818;6.972;2024-02-28T08:19:33;82.47;;;40.20;;
15635;SDS011;7917;50.818;6.972;2024-02-28T08:22:01;85.47;;;39.80;;
15635;SDS011;7917;50.818;6.972;2024-02-28T08:24:27;75.40;;;37.13;;
15635;SDS011;7917;50.818;6.972;2024-02-28T08:26:54;74.57;;;36.17;;
15635;SDS011;7917;50.818;6.972;2024-02-28T08:29:21;76.72;;;37.70;;
15635;SDS011;7917;50.818;6.972;2024-02-28T08:31:47;83.15;;;37.15;;
15635;SDS011;7917;50.818;6.972;2024-02-28T08:34:14;78.15;;;35.85;;
15635;SDS011;7917;50.818;6.972;2024-02-28T08:36:40;74.80;;;37.13;;
15635;SDS011;7917;50.818;6.972;2024-02-28T08:39:08;75.05;;;36.10;;
15635;SDS011;7917;50.818;6.972;2024-02-28T08:41:35;70.03;;;35.45;;
15635;SDS011;7917;50.818;6.972;2024-02-28T08:44:02;74.18;;;36.70;;
15635;SDS011;7917;50.818;6.972;2024-02-28T08:46:28;79.65;;;37.05;;
15635;SDS011;7917;50.818;6.972;2024-02-28T08:48:55;84.32;;;37.30;;
15635;SDS011;7917;50.818;6.972;2024-02-28T08:51:22;71.38;;;33.45;;
15635;SDS011;7917;50.818;6.972;2024-02-28T08:53:48;74.13;;;36.42;;
15635;SDS011;7917;50.818;6.972;2024-02-28T08:56:18;77.18;;;35.60;;
15635;SDS011;7917;50.818;6.972;2024-02-28T08:58:44;68.30;;;33.03;;
15635;SDS011;7917;50.818;6.972;2024-02-28T09:03:59;72.43;;;34.75;;
15635;SDS011;7917;50.818;6.972;2024-02-28T09:06:26;65.00;;;33.22;;
15635;SDS011;7917;50.818;6.972;2024-02-28T09:08:53;69.07;;;35.90;;
15635;SDS011;7917;50.818;6.972;2024-02-28T09:11:20;74.15;;;37.20;;
15635;SDS011;7917;50.818;6.972;2024-02-28T09:13:47;71.45;;;35.97;;
15635;SDS011;7917;50.818;6.972;2024-02-28T09:16:14;69.20;;;36.38;;
15635;SDS011;7917;50.818;6.972;2024-02-28T09:18:41;73.18;;;36.85;;
15635;SDS011;7917;50.818;6.972;2024-02-28T09:21:08;70.50;;;35.28;;
15635;SDS011;7917;50.818;6.972;2024-02-28T09:23:34;68.18;;;35.65;;
15635;SDS011;7917;50.818;6.972;2024-02-28T09:26:02;69.65;;;37.80;;
15635;SDS011;7917;50.818;6.972;2024-02-28T09:28:30;72.60;;;38.25;;
15635;SDS011;7917;50.818;6.972;2024-02-28T09:30:57;74.57;;;37.42;;
15635;SDS011;7917;50.818;6.972;2024-02-28T09:33:24;65.80;;;32.90;;
15635;SDS011;7917;50.818;6.972;2024-02-28T09:35:50;67.57;;;35.20;;
15635;SDS011;7917;50.818;6.972;2024-02-28T09:38:18;64.00;;;33.33;;
15635;SDS011;7917;50.818;6.972;2024-02-28T09:40:45;63.47;;;34.97;;
15635;SDS011;7917;50.818;6.972;2024-02-28T09:43:15;69.03;;;35.50;;
15635;SDS011;7917;50.818;6.972;2024-02-28T09:45:47;62.38;;;34.40;;
15635;SDS011;7917;50.818;6.972;2024-02-28T09:48:13;56.78;;;31.38;;
15635;SDS011;7917;50.818;6.972;2024-02-28T09:50:42;57.65;;;32.72;;
15635;SDS011;7917;50.818;6.972;2024-02-28T09:53:11;65.90;;;35.00;;
15635;SDS011;7917;50.818;6.972;2024-02-28T09:55:37;56.10;;;30.38;;
15635;SDS011;7917;50.818;6.972;2024-02-28T09:58:04;59.92;;;31.70;;
15635;SDS011;7917;50.818;6.972;2024-02-28T10:00:33;63.55;;;34.13;;
15635;SDS011;7917;50.818;6.972;2024-02-28T10:03:03;57.53;;;32.25;;
15635;SDS011;7917;50.818;6.972;2024-02-28T10:05:30;65.75;;;34.95;;
15635;SDS011;7917;50.818;6.972;2024-02-28T10:07:59;58.03;;;32.10;;
15635;SDS011;7917;50.818;6.972;2024-02-28T10:10:26;64.78;;;34.08;;
15635;SDS011;7917;50.818;6.972;2024-02-28T10:12:54;67.38;;;34.40;;
15635;SDS011;7917;50.818;6.972;2024-02-28T10:15:21;60.63;;;34.03;;
15635;SDS011;7917;50.818;6.972;2024-02-28T10:17:48;67.97;;;35.03;;
15635;SDS011;7917;50.818;6.972;2024-02-28T10:20:15;62.72;;;36.17;;
15635;SDS011;7917;50.818;6.972;2024-02-28T10:22:42;68.00;;;35.88;;
15635;SDS011;7917;50.818;6.972;2024-02-28T10:25:09;65.22;;;35.90;;
15635;SDS011;7917;50.818;6.972;2024-02-28T10:27:36;62.05;;;33.28;;
15635;SDS011;7917;50.818;6.972;2024-02-28T10:30:04;56.70;;;31.80;;
15635;SDS011;7917;50.818;6.972;2024-02-28T10:32:31;59.45;;;31.63;;
15635;SDS011;7917;50.818;6.972;2024-02-28T10:34:59;58.00;;;30.58;;
15635;SDS011;7917;50.818;6.972;2024-02-28T10:37:27;57.42;;;32.78;;
15635;SDS011;7917;50.818;6.972;2024-02-28T10:39:55;60.08;;;30.40;;
15635;SDS011;7917;50.818;6.972;2024-02-28T10:42:23;55.22;;;31.27;;
15635;SDS011;7917;50.818;6.972;2024-02-28T10:44:53;63.38;;;34.25;;
15635;SDS011;7917;50.818;6.972;2024-02-28T10:47:23;59.38;;;31.98;;
15635;SDS011;7917;50.818;6.972;2024-02-28T10:49:51;59.10;;;31.33;;
15635;SDS011;7917;50.818;6.972;2024-02-28T10:52:17;51.70;;;30.67;;
15635;SDS011;7917;50.818;6.972;2024-02-28T10:54:49;49.22;;;28.45;;
15635;SDS011;7917;50.818;6.972;2024-02-28T10:57:21;52.97;;;30.40;;
15635;SDS011;7917;50.818;6.972;2024-02-28T10:59:50;58.15;;;31.30;;
15635;SDS011;7917;50.818;6.972;2024-02-28T11:02:17;52.97;;;30.17;;
15635;SDS011;7917;50.818;6.972;2024-02-28T11:04:44;49.00;;;28.58;;
15635;SDS011;7917;50.818;6.972;2024-02-28T11:07:10;54.38;;;31.92;;
15635;SDS011;7917;50.818;6.972;2024-02-28T11:09:44;52.38;;;29.33;;
15635;SDS011;7917;50.818;6.972;2024-02-28T11:12:24;51.65;;;29.38;;
15635;SDS011;7917;50.818;6.972;2024-02-28T11:14:55;51.75;;;29.05;;
15635;SDS011;7917;50.818;6.972;2024-02-28T11:17:25;47.67;;;29.38;;
15635;SDS011;7917;50.818;6.972;2024-02-28T11:19:53;52.78;;;29.90;;
15635;SDS011;7917;50.818;6.972;2024-02-28T11:22:20;48.83;;;28.60;;
15635;SDS011;7917;50.818;6.972;2024-02-28T11:24:47;43.78;;;26.95;;
15635;SDS011;7917;50.818;6.972;2024-02-28T11:27:15;42.67;;;26.48;;
15635;SDS011;7917;50.818;6.972;2024-02-28T11:29:42;49.05;;;27.63;;
15635;SDS011;7917;50.818;6.972;2024-02-28T11:32:12;43.97;;;27.10;;
15635;SDS011;7917;50.818;6.972;2024-02-28T11:34:39;73.97;;;28.95;;
15635;SDS011;7917;50.818;6.972;2024-02-28T11:37:06;55.85;;;29.20;;
15635;SDS011;7917;50.818;6.972;2024-02-28T11:39:35;46.30;;;28.02;;
15635;SDS011;7917;50.818;6.972;2024-02-28T11:42:11;48.83;;;28.15;;
15635;SDS011;7917;50.818;6.972;2024-02-28T11:44:39;50.25;;;28.70;;
15635;SDS011;7917;50.818;6.972;2024-02-28T11:47:09;49.25;;;29.83;;
15635;SDS011;7917;50.818;6.972;2024-02-28T11:49:36;45.72;;;28.58;;
15635;SDS011;7917;50.818;6.972;2024-02-28T11:52:03;42.10;;;25.98;;
15635;SDS011;7917;50.818;6.972;2024-02-28T11:54:30;46.08;;;25.75;;
15635;SDS011;7917;50.818;6.972;2024-02-28T11:56:56;45.22;;;25.98;;
15635;SDS011;7917;50.818;6.972;2024-02-28T11:59:24;45.88;;;26.88;;
15635;SDS011;7917;50.818;6.972;2024-02-28T12:01:54;45.80;;;25.50;;
15635;SDS011;7917;50.818;6.972;2024-02-28T12:04:24;39.70;;;24.48;;
15635;SDS011;7917;50.818;6.972;2024-02-28T12:06:50;39.40;;;25.10;;
15635;SDS011;7917;50.818;6.972;2024-02-28T12:09:18;39.80;;;24.25;;
15635;SDS011;7917;50.818;6.972;2024-02-28T12:11:45;39.15;;;23.45;;
15635;SDS011;7917;50.818;6.972;2024-02-28T12:14:12;39.92;;;24.70;;
15635;SDS011;7917;50.818;6.972;2024-02-28T12:16:40;40.72;;;24.20;;
15635;SDS011;7917;50.818;6.972;2024-02-28T12:19:07;39.83;;;23.85;;
15635;SDS011;7917;50.818;6.972;2024-02-28T12:21:35;39.90;;;24.08;;
15635;SDS011;7917;50.818;6.972;2024-02-28T12:24:02;38.33;;;24.30;;
15635;SDS011;7917;50.818;6.972;2024-02-28T12:26:30;40.33;;;24.80;;
15635;SDS011;7917;50.818;6.972;2024-02-28T12:28:57;40.63;;;22.92;;
15635;SDS011;7917;50.818;6.972;2024-02-28T12:31:23;39.53;;;24.15;;
15635;SDS011;7917;50.818;6.972;2024-02-28T12:33:50;36.97;;;22.15;;
15635;SDS011;7917;50.818;6.972;2024-02-28T12:36:17;35.67;;;22.17;;
15635;SDS011;7917;50.818;6.972;2024-02-28T12:38:45;37.45;;;23.15;;
15635;SDS011;7917;50.818;6.972;2024-02-28T12:41:12;35.17;;;21.08;;
15635;SDS011;7917;50.818;6.972;2024-02-28T12:43:39;33.10;;;21.40;;
15635;SDS011;7917;50.818;6.972;2024-02-28T12:46:05;30.88;;;19.10;;
15635;SDS011;7917;50.818;6.972;2024-02-28T12:48:36;35.80;;;20.52;;
15635;SDS011;7917;50.818;6.972;2024-02-28T12:51:03;32.47;;;21.27;;
15635;SDS011;7917;50.818;6.972;2024-02-28T12:53:30;36.83;;;22.08;;
15635;SDS011;7917;50.818;6.972;2024-02-28T12:55:58;36.40;;;22.38;;
15635;SDS011;7917;50.818;6.972;2024-02-28T12:58:25;36.15;;;23.17;;
15635;SDS011;7917;50.818;6.972;2024-02-28T13:00:51;35.92;;;20.52;;
15635;SDS011;7917;50.818;6.972;2024-02-28T13:03:18;36.05;;;21.08;;
15635;SDS011;7917;50.818;6.972;2024-02-28T13:05:44;34.08;;;21.83;;
15635;SDS011;7917;50.818;6.972;2024-02-28T13:08:12;36.55;;;20.55;;
15635;SDS011;7917;50.818;6.972;2024-02-28T13:10:39;35.03;;;22.08;;
15635;SDS011;7917;50.818;6.972;2024-02-28T13:13:07;32.45;;;21.10;;
15635;SDS011;7917;50.818;6.972;2024-02-28T13:15:33;29.67;;;18.77;;
15635;SDS011;7917;50.818;6.972;2024-02-28T13:18:00;28.95;;;17.70;;
15635;SDS011;7917;50.818;6.972;2024-02-28T13:20:32;25.92;;;17.20;;
15635;SDS011;7917;50.818;6.972;2024-02-28T13:22:59;28.50;;;16.08;;
15635;SDS011;7917;50.818;6.972;2024-02-28T13:25:26;28.38;;;17.52;;
15635;SDS011;7917;50.818;6.972;2024-02-28T13:27:53;29.70;;;19.67;;
15635;SDS011;7917;50.818;6.972;2024-02-28T13:30:21;33.17;;;21.25;;
15635;SDS011;7917;50.818;6.972;2024-02-28T13:32:47;33.35;;;21.35;;
15635;SDS011;7917;50.818;6.972;2024-02-28T13:35:14;31.48;;;20.67;;
15635;SDS011;7917;50.818;6.972;2024-02-28T13:37:40;32.47;;;19.90;;
15635;SDS011;7917;50.818;6.972;2024-02-28T13:40:07;32.03;;;20.40;;
15635;SDS011;7917;50.818;6.972;2024-02-28T13:42:35;28.92;;;18.17;;
15635;SDS011;7917;50.818;6.972;2024-02-28T13:45:03;25.98;;;16.77;;
15635;SDS011;7917;50.818;6.972;2024-02-28T13:47:33;27.50;;;17.70;;
15635;SDS011;7917;50.818;6.972;2024-02-28T13:49:59;22.30;;;15.13;;
15635;SDS011;7917;50.818;6.972;2024-02-28T13:52:28;25.50;;;16.60;;
15635;SDS011;7917;50.818;6.972;2024-02-28T13:54:54;29.17;;;18.95;;
15635;SDS011;7917;50.818;6.972;2024-02-28T13:57:21;29.80;;;18.88;;
15635;SDS011;7917;50.818;6.972;2024-02-28T13:59:48;32.92;;;21.45;;
15635;SDS011;7917;50.818;6.972;2024-02-28T14:02:18;32.92;;;20.77;;
15635;SDS011;7917;50.818;6.972;2024-02-28T14:04:45;37.22;;;22.55;;
15635;SDS011;7917;50.818;6.972;2024-02-28T14:07:14;39.10;;;22.33;;
15635;SDS011;7917;50.818;6.972;2024-02-28T14:09:41;33.03;;;20.58;;
15635;SDS011;7917;50.818;6.972;2024-02-28T14:12:09;37.50;;;21.88;;
15635;SDS011;7917;50.818;6.972;2024-02-28T14:14:36;37.00;;;21.52;;
15635;SDS011;7917;50.818;6.972;2024-02-28T14:17:04;34.65;;;23.08;;
15635;SDS011;7917;50.818;6.972;2024-02-28T14:19:31;41.85;;;22.73;;
15635;SDS011;7917;50.818;6.972;2024-02-28T14:21:59;39.95;;;20.60;;
15635;SDS011;7917;50.818;6.972;2024-02-28T14:24:26;41.78;;;21.92;;
15635;SDS011;7917;50.818;6.972;2024-02-28T14:26:53;35.03;;;22.23;;
15635;SDS011;7917;50.818;6.972;2024-02-28T14:29:20;37.22;;;22.38;;
15635;SDS011;7917;50.818;6.972;2024-02-28T14:31:47;37.00;;;22.30;;
15635;SDS011;7917;50.818;6.972;2024-02-28T14:34:14;32.20;;;20.35;;
15635;SDS011;7917;50.818;6.972;2024-02-28T14:36:40;35.67;;;22.08;;